RJTJ(METAR)
05/30 18:00
METAR RJTJ 300900Z 19013KT 9999 FEW030 BKN230 24/16 Q1019 RMK 1CU030
A3010=
戻る
トップページへ戻る
IMOC Co,.Ltd.